Time;durP1;ratioP1;P1;durP2;ratioP2;P2;SDS_P1;SDS_P2;PMS_P1;PMS_P2;Temp;Humidity;BMP_temperature;BMP_pressure;BME280_temperature;BME280_humidity;BME280_pressure;Samples;Min_cycle;Max_cycle;Signal;HPM_P1;HPM_P2
2022/04/29 00:00:18;;;;;;;1999.90;999.90;;;16.40;56.50;;;;;;5023413;28;20038;-78
2022/04/29 00:02:45;;;;;;;1999.90;999.90;;;16.40;56.50;;;;;;5014676;28;20041;-77
2022/04/29 00:05:11;;;;;;;1999.90;999.90;;;16.40;56.50;;;;;;5032247;28;20041;-77
2022/04/29 00:07:39;;;;;;;1999.90;999.90;;;16.30;56.50;;;;;;5039996;28;20041;-78
2022/04/29 00:10:07;;;;;;;1999.90;999.90;;;16.30;56.60;;;;;;5043459;28;20036;-77
2022/04/29 00:12:33;;;;;;;1999.90;999.90;;;16.30;56.60;;;;;;5028858;28;20034;-77
2022/04/29 00:14:59;;;;;;;1999.90;999.90;;;16.20;56.70;;;;;;5031251;28;20402;-77
2022/04/29 00:17:26;;;;;;;1999.90;999.90;;;16.20;56.90;;;;;;5015891;28;20054;-77
2022/04/29 00:19:52;;;;;;;1999.90;999.90;;;16.10;56.80;;;;;;5037249;28;20029;-78
2022/04/29 00:22:19;;;;;;;1999.90;999.90;;;16.10;56.90;;;;;;5032302;28;20037;-77
2022/04/29 00:24:45;;;;;;;1999.90;999.90;;;16.10;57.00;;;;;;5024750;28;20048;-77
2022/04/29 00:27:11;;;;;;;1999.90;999.90;;;16.10;57.00;;;;;;5017887;28;20033;-77
2022/04/29 00:29:37;;;;;;;1999.90;999.90;;;16.00;57.10;;;;;;5035604;28;20044;-77
2022/04/29 00:32:04;;;;;;;1999.90;999.90;;;16.00;57.20;;;;;;5040052;28;20389;-77
2022/04/29 00:34:30;;;;;;;1999.90;999.90;;;15.90;57.20;;;;;;5036535;28;20041;-77
2022/04/29 00:36:56;;;;;;;1999.90;999.90;;;15.90;57.20;;;;;;5035048;28;20040;-77
2022/04/29 00:39:23;;;;;;;1999.90;999.90;;;15.90;57.30;;;;;;5016644;28;20033;-78
2022/04/29 00:41:50;;;;;;;1999.90;999.90;;;15.90;57.30;;;;;;5042791;28;20030;-77
2022/04/29 00:44:17;;;;;;;1999.90;999.90;;;15.90;57.40;;;;;;5029053;28;20088;-77
2022/04/29 00:46:45;;;;;;;1999.90;999.90;;;15.80;57.30;;;;;;5030550;28;20033;-77
2022/04/29 00:49:13;;;;;;;1999.90;999.90;;;15.80;57.40;;;;;;5030221;28;20454;-77
2022/04/29 00:51:41;;;;;;;1999.90;999.90;;;15.80;57.50;;;;;;5032582;28;20036;-77
2022/04/29 00:54:08;;;;;;;1999.90;999.90;;;15.80;57.50;;;;;;5028811;28;20033;-77
2022/04/29 00:56:37;;;;;;;1999.90;999.90;;;15.90;57.60;;;;;;5034755;28;20045;-77
2022/04/29 00:59:15;;;;;;;1999.90;999.90;;;15.80;57.50;;;;;;5027387;28;20022;-77
2022/04/29 01:01:43;;;;;;;1999.90;999.90;;;15.80;57.50;;;;;;5034020;28;20517;-77
2022/04/29 01:04:17;;;;;;;1999.90;999.90;;;15.90;57.60;;;;;;5023704;28;20049;-77
2022/04/29 01:06:43;;;;;;;1999.90;999.90;;;15.90;57.80;;;;;;5032628;28;20032;-77
2022/04/29 01:09:09;;;;;;;1999.90;999.90;;;15.90;57.60;;;;;;5013263;28;20037;-77
2022/04/29 01:11:35;;;;;;;1999.90;999.90;;;15.80;57.60;;;;;;5025602;28;20398;-77
2022/04/29 01:14:01;;;;;;;1999.90;999.90;;;15.80;57.70;;;;;;5018848;28;20044;-77
2022/04/29 01:16:27;;;;;;;1999.90;999.90;;;15.80;57.70;;;;;;5029969;28;20045;-77
2022/04/29 01:18:53;;;;;;;1999.90;999.90;;;15.80;57.80;;;;;;5028594;28;20037;-77
2022/04/29 01:21:19;;;;;;;1999.90;999.90;;;15.80;57.80;;;;;;5025793;28;20040;-77
2022/04/29 01:23:46;;;;;;;1999.90;999.90;;;15.80;57.90;;;;;;5019217;28;20048;-77
2022/04/29 01:26:15;;;;;;;1999.90;999.90;;;15.80;58.00;;;;;;5028631;28;20056;-78
2022/04/29 01:28:45;;;;;;;1999.90;999.90;;;15.80;58.10;;;;;;5033575;28;20475;-77
2022/04/29 01:31:15;;;;;;;1999.90;999.90;;;15.70;58.10;;;;;;5028404;28;20517;-77
2022/04/29 01:33:42;;;;;;;1999.90;999.90;;;15.70;58.10;;;;;;5030402;28;20032;-77
2022/04/29 01:36:09;;;;;;;1999.90;999.90;;;15.70;58.20;;;;;;5014172;28;20391;-77
2022/04/29 01:38:36;;;;;;;1999.90;999.90;;;15.70;58.20;;;;;;5033280;28;20044;-77
2022/04/29 01:41:02;;;;;;;1999.90;999.90;;;15.60;58.20;;;;;;5033907;28;20036;-77
2022/04/29 01:43:28;;;;;;;1999.90;999.90;;;15.60;58.30;;;;;;5030340;28;20033;-77
2022/04/29 01:45:54;;;;;;;1999.90;999.90;;;15.60;58.30;;;;;;5026244;28;20046;-77
2022/04/29 01:48:21;;;;;;;1999.90;999.90;;;15.60;58.40;;;;;;4994212;28;20416;-77
2022/04/29 01:50:48;;;;;;;1999.90;999.90;;;15.60;58.40;;;;;;5033047;28;20033;-77
2022/04/29 01:53:14;;;;;;;1999.90;999.90;;;15.60;58.50;;;;;;5032956;28;20493;-77
2022/04/29 01:55:40;;;;;;;1999.90;999.90;;;15.50;58.50;;;;;;5033899;28;20045;-77
2022/04/29 01:58:06;;;;;;;1999.90;999.90;;;15.50;58.60;;;;;;5040548;28;20060;-77
2022/04/29 02:00:32;;;;;;;1999.90;999.90;;;15.50;58.70;;;;;;5028243;28;20044;-77
2022/04/29 02:02:58;;;;;;;1999.90;999.90;;;15.40;58.80;;;;;;5031262;28;20049;-77
2022/04/29 02:05:25;;;;;;;1999.90;999.90;;;15.40;58.90;;;;;;5013977;28;20038;-77
2022/04/29 02:07:51;;;;;;;1999.90;999.90;;;15.40;58.90;;;;;;5033416;28;20473;-77
2022/04/29 02:10:17;;;;;;;1999.90;999.90;;;15.40;58.90;;;;;;5032243;28;20866;-77
2022/04/29 02:12:43;;;;;;;1999.90;999.90;;;15.40;59.10;;;;;;5032126;28;20037;-77
2022/04/29 02:15:09;;;;;;;1999.90;999.90;;;15.30;59.10;;;;;;5019068;28;20049;-77
2022/04/29 02:17:36;;;;;;;1999.90;999.90;;;15.30;59.20;;;;;;5031741;28;20038;-77
2022/04/29 02:20:02;;;;;;;1999.90;999.90;;;15.30;59.20;;;;;;5022579;28;20026;-77
2022/04/29 02:22:28;;;;;;;1999.90;999.90;;;15.20;59.20;;;;;;5027764;28;20025;-77
2022/04/29 02:24:54;;;;;;;1999.90;999.90;;;15.20;59.30;;;;;;5024128;28;20029;-77
2022/04/29 02:27:20;;;;;;;1999.90;999.90;;;15.20;59.30;;;;;;5031408;28;20513;-77
2022/04/29 02:29:46;;;;;;;1999.90;999.90;;;15.20;59.40;;;;;;5029713;28;20029;-77
2022/04/29 02:32:12;;;;;;;1999.90;999.90;;;15.20;59.40;;;;;;5031081;28;20101;-77
2022/04/29 02:34:40;;;;;;;1999.90;999.90;;;15.10;59.40;;;;;;5026795;28;20040;-77
2022/04/29 02:37:06;;;;;;;1999.90;999.90;;;15.10;59.40;;;;;;5032770;28;20053;-77
2022/04/29 02:39:32;;;;;;;1999.90;999.90;;;15.10;59.50;;;;;;5028435;28;20025;-77
2022/04/29 02:41:58;;;;;;;1999.90;999.90;;;15.10;59.60;;;;;;5036290;28;20033;-77
2022/04/29 02:44:24;;;;;;;1999.90;999.90;;;15.10;59.60;;;;;;5013579;28;20033;-77
2022/04/29 02:47:09;;;;;;;1999.90;999.90;;;15.10;59.60;;;;;;5025946;28;20034;-77
2022/04/29 02:49:35;;;;;;;1999.90;999.90;;;15.10;59.60;;;;;;5023224;28;20647;-77
2022/04/29 02:52:01;;;;;;;1999.90;999.90;;;15.10;59.60;;;;;;5031329;28;20378;-77
2022/04/29 02:54:27;;;;;;;1999.90;999.90;;;15.10;59.50;;;;;;5022124;28;20044;-77
2022/04/29 02:56:53;;;;;;;1999.90;999.90;;;15.20;59.60;;;;;;5044761;28;20414;-77
2022/04/29 02:59:19;;;;;;;1999.90;999.90;;;15.20;59.60;;;;;;5030456;28;20030;-77
2022/04/29 03:01:46;;;;;;;1999.90;999.90;;;15.20;59.60;;;;;;5032427;28;20041;-77
2022/04/29 03:04:12;;;;;;;1999.90;999.90;;;15.10;59.60;;;;;;5032163;28;20034;-77
2022/04/29 03:06:38;;;;;;;1999.90;999.90;;;15.10;59.70;;;;;;5029998;28;20036;-77
2022/04/29 03:09:04;;;;;;;1999.90;999.90;;;15.10;59.80;;;;;;5029481;28;20029;-77
2022/04/29 03:11:30;;;;;;;1999.90;999.90;;;15.10;59.80;;;;;;5017911;28;20475;-77
2022/04/29 03:13:56;;;;;;;1999.90;999.90;;;15.10;59.80;;;;;;5030505;28;20053;-77
2022/04/29 03:16:22;;;;;;;1999.90;999.90;;;15.10;59.80;;;;;;5036783;28;20072;-77
2022/04/29 03:18:49;;;;;;;1999.90;999.90;;;15.10;59.90;;;;;;5038892;28;20030;-78
2022/04/29 03:21:15;;;;;;;1999.90;999.90;;;15.10;59.90;;;;;;5007725;28;20052;-77
2022/04/29 03:23:41;;;;;;;1999.90;999.90;;;15.10;59.90;;;;;;4995052;28;20041;-77
2022/04/29 03:26:08;;;;;;;1999.90;999.90;;;15.10;60.00;;;;;;5019449;28;20384;-77
2022/04/29 03:28:34;;;;;;;1999.90;999.90;;;15.10;60.10;;;;;;5028341;28;20139;-77
2022/04/29 03:31:00;;;;;;;1999.90;999.90;;;15.00;60.00;;;;;;5035072;28;20036;-77
2022/04/29 03:33:26;;;;;;;1999.90;999.90;;;15.10;60.20;;;;;;5022334;28;20504;-77
2022/04/29 03:35:53;;;;;;;1999.90;999.90;;;15.00;60.20;;;;;;5032620;28;20037;-77
2022/04/29 03:38:19;;;;;;;1999.90;999.90;;;15.00;60.20;;;;;;5019398;28;20046;-77
2022/04/29 03:40:46;;;;;;;1999.90;999.90;;;15.00;60.30;;;;;;5031246;28;20029;-77
2022/04/29 03:43:12;;;;;;;1999.90;999.90;;;15.00;60.30;;;;;;5032345;28;20712;-77
2022/04/29 03:45:38;;;;;;;1999.90;999.90;;;15.00;60.40;;;;;;5028144;28;20505;-77
2022/04/29 03:48:04;;;;;;;1999.90;999.90;;;15.00;60.40;;;;;;5029938;28;20021;-77
2022/04/29 03:50:31;;;;;;;1999.90;999.90;;;15.00;60.50;;;;;;5013532;28;20032;-77
2022/04/29 03:52:59;;;;;;;1999.90;999.90;;;15.00;60.50;;;;;;5006965;28;20029;-77
2022/04/29 03:55:30;;;;;;;1999.90;999.90;;;14.90;60.60;;;;;;5030030;28;20608;-78
2022/04/29 03:57:56;;;;;;;1999.90;999.90;;;14.90;60.60;;;;;;5002924;28;20049;-78
2022/04/29 04:00:24;;;;;;;1999.90;999.90;;;14.90;60.80;;;;;;5022502;28;20273;-77
2022/04/29 04:02:50;;;;;;;1999.90;999.90;;;14.80;60.70;;;;;;5034503;28;20029;-78
2022/04/29 04:05:17;;;;;;;1999.90;999.90;;;14.80;60.80;;;;;;5013403;28;20037;-77
2022/04/29 04:07:44;;;;;;;1999.90;999.90;;;14.80;60.90;;;;;;5010590;28;20037;-77
2022/04/29 04:10:10;;;;;;;1999.90;999.90;;;14.80;60.90;;;;;;5034449;28;20036;-79
2022/04/29 04:12:41;;;;;;;1999.90;999.90;;;14.80;61.00;;;;;;5021554;28;20470;-78
2022/04/29 04:15:07;;;;;;;1999.90;999.90;;;14.70;61.00;;;;;;5013988;28;20375;-77
2022/04/29 04:17:33;;;;;;;1999.90;999.90;;;14.70;61.10;;;;;;5035088;28;20427;-78
2022/04/29 04:20:00;;;;;;;1999.90;999.90;;;14.70;61.10;;;;;;5038415;28;20033;-77
2022/04/29 04:22:27;;;;;;;1999.90;999.90;;;14.70;61.10;;;;;;5033826;28;20031;-77
2022/04/29 04:24:53;;;;;;;1999.90;999.90;;;14.60;61.20;;;;;;5034233;28;20025;-78
2022/04/29 04:27:19;;;;;;;1999.90;999.90;;;14.60;61.20;;;;;;5020502;28;20045;-77
2022/04/29 04:29:46;;;;;;;1999.90;999.90;;;14.60;61.30;;;;;;5016021;28;20037;-77
2022/04/29 04:32:12;;;;;;;1999.90;999.90;;;14.60;61.40;;;;;;5035325;28;20037;-77
2022/04/29 04:34:50;;;;;;;1999.90;999.90;;;14.50;61.40;;;;;;5027982;28;20029;-77
2022/04/29 04:37:17;;;;;;;1999.90;999.90;;;14.50;61.60;;;;;;5031816;28;20580;-78
2022/04/29 04:39:44;;;;;;;1999.90;999.90;;;14.40;61.50;;;;;;5026782;28;20030;-78
2022/04/29 04:42:10;;;;;;;1999.90;999.90;;;14.40;61.60;;;;;;5021092;28;20029;-77
2022/04/29 04:44:36;;;;;;;1999.90;999.90;;;14.40;61.70;;;;;;5018752;28;20044;-77
2022/04/29 04:47:03;;;;;;;1999.90;999.90;;;14.40;61.80;;;;;;5026974;28;20532;-77
2022/04/29 04:49:29;;;;;;;1999.90;999.90;;;14.30;61.80;;;;;;5028995;28;20030;-77
2022/04/29 04:51:55;;;;;;;1999.90;999.90;;;14.30;61.80;;;;;;5025533;28;20391;-77
2022/04/29 04:54:21;;;;;;;1999.90;999.90;;;14.30;61.90;;;;;;5037519;28;20033;-77
2022/04/29 04:56:48;;;;;;;1999.90;999.90;;;14.20;61.90;;;;;;5031300;28;20048;-77
2022/04/29 04:59:14;;;;;;;1999.90;999.90;;;14.20;61.90;;;;;;5026609;28;20025;-77
2022/04/29 05:01:40;;;;;;;1999.90;999.90;;;14.20;62.00;;;;;;5030044;28;20049;-77
2022/04/29 05:04:06;;;;;;;1999.90;999.90;;;14.20;62.00;;;;;;5030204;28;20047;-77
2022/04/29 05:06:32;;;;;;;1999.90;999.90;;;14.20;62.00;;;;;;5027532;28;20041;-77
2022/04/29 05:08:58;;;;;;;1999.90;999.90;;;14.20;62.00;;;;;;5012637;28;20041;-77
2022/04/29 05:11:24;;;;;;;1999.90;999.90;;;14.20;62.10;;;;;;5027321;28;20484;-77
2022/04/29 05:13:50;;;;;;;1999.90;999.90;;;14.20;62.10;;;;;;5008806;28;20041;-77
2022/04/29 05:16:16;;;;;;;1999.90;999.90;;;14.20;62.20;;;;;;5026403;28;20046;-78
2022/04/29 05:18:43;;;;;;;1999.90;999.90;;;14.20;62.20;;;;;;5028529;28;20029;-77
2022/04/29 05:21:09;;;;;;;1999.90;999.90;;;14.20;62.30;;;;;;5029059;28;20056;-77
2022/04/29 05:23:36;;;;;;;1999.90;999.90;;;14.10;62.20;;;;;;5013036;28;20040;-77
2022/04/29 05:26:03;;;;;;;1999.90;999.90;;;14.10;62.20;;;;;;5028001;28;20398;-77
2022/04/29 05:28:29;;;;;;;1999.90;999.90;;;14.10;63.00;;;;;;5032734;28;20049;-77
2022/04/29 05:30:56;;;;;;;1999.90;999.90;;;14.10;62.30;;;;;;5027482;28;20048;-77
2022/04/29 05:33:25;;;;;;;1999.90;999.90;;;14.10;62.40;;;;;;5025707;28;20497;-77
2022/04/29 05:35:51;;;;;;;1999.90;999.90;;;14.10;62.40;;;;;;5012627;28;20040;-77
2022/04/29 05:38:17;;;;;;;1999.90;999.90;;;14.10;62.30;;;;;;5027466;28;20052;-77
2022/04/29 05:43:28;;;;;;;1999.90;999.90;;;14.20;62.30;;;;;;5028861;28;20034;-77
2022/04/29 05:45:54;;;;;;;1999.90;999.90;;;14.40;62.20;;;;;;5028353;28;20037;-77
2022/04/29 05:48:20;;;;;;;1999.90;999.90;;;14.50;62.10;;;;;;5025236;28;20471;-77
2022/04/29 05:50:47;;;;;;;1999.90;999.90;;;14.60;61.90;;;;;;5000649;28;20048;-77
2022/04/29 05:53:14;;;;;;;1999.90;999.90;;;14.70;61.70;;;;;;5026665;28;20044;-80
2022/04/29 05:55:40;;;;;;;1999.90;999.90;;;14.80;61.70;;;;;;5028099;28;20394;-77
2022/04/29 05:58:06;;;;;;;1999.90;999.90;;;14.80;61.70;;;;;;5025110;28;20033;-77
2022/04/29 06:00:32;;;;;;;1999.90;999.90;;;14.90;61.60;;;;;;5012878;28;20041;-77
2022/04/29 06:02:58;;;;;;;1999.90;999.90;;;14.90;61.60;;;;;;5026467;28;20064;-77
2022/04/29 06:05:24;;;;;;;1999.90;999.90;;;15.00;61.60;;;;;;5013097;28;20501;-79
2022/04/29 06:07:51;;;;;;;1999.90;999.90;;;15.10;61.40;;;;;;5029368;28;20033;-80
2022/04/29 06:10:17;;;;;;;1999.90;999.90;;;15.30;61.20;;;;;;5021195;28;20041;-83
2022/04/29 06:12:43;;;;;;;1999.90;999.90;;;15.40;60.90;;;;;;5011289;28;20056;-83
2022/04/29 06:15:14;;;;;;;1999.90;999.90;;;15.50;60.80;;;;;;5028385;28;20044;-84
2022/04/29 06:17:40;;;;;;;1999.90;999.90;;;15.50;60.80;;;;;;5028857;28;20056;-83
2022/04/29 06:20:08;;;;;;;1999.90;999.90;;;15.60;60.80;;;;;;5028569;28;20156;-82
2022/04/29 06:22:34;;;;;;;1999.90;999.90;;;15.60;60.90;;;;;;5016531;28;20490;-85
2022/04/29 06:25:00;;;;;;;1999.90;999.90;;;15.50;60.90;;;;;;4990925;28;20049;-79
2022/04/29 06:27:26;;;;;;;1999.90;999.90;;;15.50;61.10;;;;;;5026438;28;20033;-78
2022/04/29 06:29:52;;;;;;;1999.90;999.90;;;15.50;61.30;;;;;;5030098;28;20045;-78
2022/04/29 06:32:19;;;;;;;1999.90;999.90;;;15.50;61.30;;;;;;5031070;28;20061;-78
2022/04/29 06:34:45;;;;;;;1999.90;999.90;;;15.50;62.20;;;;;;5035554;28;20036;-78
2022/04/29 06:37:11;;;;;;;1999.90;999.90;;;15.40;61.30;;;;;;5031896;28;20060;-79
2022/04/29 06:39:40;;;;;;;1999.90;999.90;;;15.40;61.50;;;;;;5028657;28;20029;-81
2022/04/29 06:42:06;;;;;;;1999.90;999.90;;;15.40;61.40;;;;;;5025851;28;20025;-82
2022/04/29 06:44:32;;;;;;;1999.90;999.90;;;15.40;61.50;;;;;;5026382;28;20033;-80
2022/04/29 06:46:58;;;;;;;1999.90;999.90;;;15.30;61.50;;;;;;5026985;28;20037;-81
2022/04/29 06:49:24;;;;;;;1999.90;999.90;;;15.30;61.60;;;;;;5030340;28;20029;-82
2022/04/29 06:51:50;;;;;;;1999.90;999.90;;;15.30;61.70;;;;;;5024804;28;20378;-80
2022/04/29 06:54:17;;;;;;;1999.90;999.90;;;15.30;61.80;;;;;;5023626;28;20522;-81
2022/04/29 06:56:43;;;;;;;1999.90;999.90;;;15.30;61.70;;;;;;5030989;28;20033;-84
2022/04/29 06:59:09;;;;;;;1999.90;999.90;;;15.30;61.60;;;;;;5020799;28;20061;-84
2022/04/29 07:01:35;;;;;;;1999.90;999.90;;;15.30;61.60;;;;;;5006803;28;20034;-87
2022/04/29 07:04:01;;;;;;;1999.90;999.90;;;15.30;61.50;;;;;;5017843;28;20034;-88
2022/04/29 07:06:27;;;;;;;1999.90;999.90;;;15.40;61.50;;;;;;5031672;28;20082;-86
2022/04/29 07:08:53;;;;;;;1999.90;999.90;;;15.40;61.50;;;;;;5036179;28;20577;-87
2022/04/29 07:11:20;;;;;;;1999.90;999.90;;;15.40;61.50;;;;;;5014759;28;20041;-83
2022/04/29 07:13:46;;;;;;;1999.90;999.90;;;15.40;61.40;;;;;;5031528;28;20033;-82
2022/04/29 07:16:13;;;;;;;1999.90;999.90;;;15.50;61.50;;;;;;5030965;28;20442;-86
2022/04/29 07:18:39;;;;;;;1999.90;999.90;;;15.60;61.40;;;;;;5030107;28;20033;-81
2022/04/29 07:21:05;;;;;;;1999.90;999.90;;;15.60;61.30;;;;;;5030110;28;20037;-81
2022/04/29 07:23:32;;;;;;;1999.90;999.90;;;15.60;61.30;;;;;;5036399;28;20072;-81
2022/04/29 07:25:58;;;;;;;1999.90;999.90;;;15.60;61.20;;;;;;5033278;28;20029;-80
2022/04/29 07:28:24;;;;;;;1999.90;999.90;;;15.70;61.10;;;;;;5031446;28;20034;-85
2022/04/29 07:30:50;;;;;;;1999.90;999.90;;;15.80;61.10;;;;;;5029376;28;20041;-83
2022/04/29 07:33:16;;;;;;;1999.90;999.90;;;15.80;60.90;;;;;;5026869;28;20029;-85
2022/04/29 07:43:56;;;;;;;1999.90;999.90;;;15.80;61.70;;;;;;5033444;28;20041;-80
2022/04/29 07:46:23;;;;;;;1999.90;999.90;;;15.80;61.10;;;;;;5027530;28;20040;-80
2022/04/29 07:48:49;;;;;;;1999.90;999.90;;;15.70;61.10;;;;;;5029166;28;20029;-80
2022/04/29 07:51:15;;;;;;;1999.90;999.90;;;15.70;61.10;;;;;;5027045;28;20717;-80
2022/04/29 07:53:41;;;;;;;1999.90;999.90;;;15.80;61.20;;;;;;5012854;28;20292;-92
2022/04/29 07:56:07;;;;;;;1999.90;999.90;;;15.80;61.10;;;;;;5025771;28;20029;-86
2022/04/29 07:58:34;;;;;;;1999.90;999.90;;;15.90;61.00;;;;;;5034299;28;20045;-84
2022/04/29 08:01:01;;;;;;;1999.90;999.90;;;16.00;60.90;;;;;;5033814;28;20383;-89
2022/04/29 08:03:27;;;;;;;1999.90;999.90;;;16.10;60.80;;;;;;5031979;28;20040;-90
2022/04/29 08:05:54;;;;;;;1999.90;999.90;;;16.20;60.60;;;;;;5031897;28;20040;-87
2022/04/29 08:08:21;;;;;;;1999.90;999.90;;;16.30;60.40;;;;;;5017382;28;20048;-86
2022/04/29 08:10:47;;;;;;;1999.90;999.90;;;16.40;60.40;;;;;;5032074;28;20029;-86
2022/04/29 08:13:13;;;;;;;1999.90;999.90;;;16.50;60.20;;;;;;5030925;28;20021;-85
2022/04/29 08:15:43;;;;;;;1999.90;999.90;;;16.80;60.00;;;;;;5009858;28;24035;-87
2022/04/29 08:18:09;;;;;;;1999.90;999.90;;;17.10;60.00;;;;;;5023717;28;20395;-87
2022/04/29 08:20:35;;;;;;;1999.90;999.90;;;17.50;58.90;;;;;;5045558;28;20100;-87
2022/04/29 08:23:01;;;;;;;1999.90;999.90;;;17.90;58.50;;;;;;5011676;28;20041;-86
2022/04/29 08:25:27;;;;;;;1999.90;999.90;;;18.20;58.10;;;;;;5036958;28;20025;-84
2022/04/29 08:27:53;;;;;;;1999.90;999.90;;;18.50;57.90;;;;;;5010694;28;20041;-88
2022/04/29 08:30:20;;;;;;;1999.90;999.90;;;18.70;57.50;;;;;;5031208;28;20052;-88
2022/04/29 08:32:47;;;;;;;1999.90;999.90;;;18.80;57.30;;;;;;5018531;28;20037;-88
2022/04/29 08:35:13;;;;;;;1999.90;999.90;;;19.00;57.80;;;;;;5028190;28;20037;-92
2022/04/29 08:37:40;;;;;;;1999.90;999.90;;;19.10;57.00;;;;;;5013219;28;20061;-88
2022/04/29 08:40:07;;;;;;;1999.90;999.90;;;19.20;57.00;;;;;;5038725;28;20025;-93
2022/04/29 08:42:37;;;;;;;1999.90;999.90;;;19.30;56.80;;;;;;5039909;28;20034;-93
2022/04/29 08:45:09;;;;;;;1999.90;999.90;;;19.50;56.70;;;;;;5027428;28;20033;-89
2022/04/29 08:47:36;;;;;;;1999.90;999.90;;;19.50;56.60;;;;;;5043181;28;20021;-91
2022/04/29 08:50:06;;;;;;;1999.90;999.90;;;19.50;56.60;;;;;;5032732;28;20034;-85
2022/04/29 08:52:34;;;;;;;1999.90;999.90;;;19.60;56.60;;;;;;5028667;28;20034;-91
2022/04/29 09:00:30;;;;;;;1999.90;999.90;;;20.10;56.10;;;;;;5014596;28;20038;-90
2022/04/29 09:02:56;;;;;;;1999.90;999.90;;;20.30;56.10;;;;;;5029766;28;20036;-88
2022/04/29 09:05:23;;;;;;;1999.90;999.90;;;20.50;55.50;;;;;;5005522;28;20495;-89
2022/04/29 09:08:02;;;;;;;1999.90;999.90;;;20.60;55.30;;;;;;5023987;28;20021;-90
2022/04/29 09:10:30;;;;;;;1999.90;999.90;;;20.60;55.20;;;;;;5025811;28;20052;-87
2022/04/29 09:13:38;;;;;;;1999.90;999.90;;;20.60;55.10;;;;;;5010071;28;20033;-91
2022/04/29 09:16:10;;;;;;;1999.90;999.90;;;20.70;55.10;;;;;;5025979;28;20057;-93
2022/04/29 09:18:45;;;;;;;1999.90;999.90;;;20.90;55.00;;;;;;5012496;28;20049;-87
2022/04/29 09:21:16;;;;;;;1999.90;999.90;;;21.00;54.70;;;;;;5026012;28;20037;-82
2022/04/29 09:23:54;;;;;;;1999.90;999.90;;;21.10;54.60;;;;;;5028485;28;20052;-90
2022/04/29 09:26:27;;;;;;;1999.90;999.90;;;21.30;54.40;;;;;;5030911;28;20034;-91
2022/04/29 09:29:09;;;;;;;1999.90;999.90;;;21.30;54.20;;;;;;5010811;28;20501;-86
2022/04/29 09:31:54;;;;;;;1999.90;999.90;;;21.20;54.10;;;;;;5020898;28;20045;-89
2022/04/29 09:34:21;;;;;;;1999.90;999.90;;;21.10;54.30;;;;;;5018255;28;20037;-89
2022/04/29 09:36:47;;;;;;;1999.90;999.90;;;21.10;54.30;;;;;;5011011;28;20053;-88
2022/04/29 09:39:32;;;;;;;1999.90;999.90;;;21.20;54.40;;;;;;5027225;28;20092;-87
2022/04/29 09:42:04;;;;;;;1999.90;999.90;;;21.30;54.20;;;;;;5024686;28;20037;-88
2022/04/29 09:44:32;;;;;;;1999.90;999.90;;;21.50;53.80;;;;;;5014111;28;20391;-89
2022/04/29 09:47:14;;;;;;;1999.90;999.90;;;21.70;53.50;;;;;;5008441;28;20045;-85
2022/04/29 09:49:41;;;;;;;1999.90;999.90;;;21.90;53.30;;;;;;5008937;28;20136;-84
2022/04/29 09:52:07;;;;;;;1999.90;999.90;;;21.90;53.10;;;;;;5026565;28;20049;-82
2022/04/29 09:54:37;;;;;;;1999.90;999.90;;;22.00;53.00;;;;;;5025539;28;20045;-83
2022/04/29 09:57:13;;;;;;;1999.90;999.90;;;22.20;52.90;;;;;;5027255;28;20041;-82
2022/04/29 09:59:42;;;;;;;1999.90;999.90;;;22.20;52.60;;;;;;5029461;28;20486;-85
2022/04/29 10:02:10;;;;;;;1999.90;999.90;;;22.30;52.40;;;;;;5021982;28;20033;-80
2022/04/29 10:04:39;;;;;;;1999.90;999.90;;;22.40;52.40;;;;;;5026666;28;20034;-81
2022/04/29 10:07:07;;;;;;;1999.90;999.90;;;22.50;52.30;;;;;;5022694;28;20026;-83
2022/04/29 10:09:34;;;;;;;1999.90;999.90;;;22.60;52.00;;;;;;5034342;28;20036;-88
2022/04/29 10:12:05;;;;;;;1999.90;999.90;;;22.50;51.90;;;;;;5017552;28;20033;-90
2022/04/29 10:14:32;;;;;;;1999.90;999.90;;;22.50;51.90;;;;;;5022997;28;20036;-90
2022/04/29 10:22:32;;;;;;;1999.90;999.90;;;22.80;51.80;;;;;;5017370;28;20038;-92
2022/04/29 10:24:59;;;;;;;1999.90;999.90;;;23.00;51.60;;;;;;5009269;28;20037;-85
2022/04/29 10:27:26;;;;;;;1999.90;999.90;;;23.10;51.30;;;;;;5010528;28;20038;-90
2022/04/29 10:29:52;;;;;;;1999.90;999.90;;;23.20;51.20;;;;;;5026546;28;20053;-93
2022/04/29 10:32:18;;;;;;;1999.90;999.90;;;23.20;50.90;;;;;;4991206;28;20041;-88
2022/04/29 10:34:44;;;;;;;1999.90;999.90;;;23.20;50.80;;;;;;5026333;28;20036;-91
2022/04/29 10:37:13;;;;;;;1999.90;999.90;;;23.30;51.00;;;;;;5025522;28;20502;-90
2022/04/29 10:39:40;;;;;;;1999.90;999.90;;;23.40;50.80;;;;;;5010670;28;20030;-84
2022/04/29 10:42:10;;;;;;;1999.90;999.90;;;23.40;50.50;;;;;;5025640;28;20053;-83
2022/04/29 10:45:00;;;;;;;1999.90;999.90;;;23.40;50.30;;;;;;5026435;28;20044;-82
2022/04/29 10:47:31;;;;;;;1999.90;999.90;;;23.50;50.30;;;;;;5019333;28;20404;-85
2022/04/29 10:50:31;;;;;;;1999.90;999.90;;;23.60;50.30;;;;;;5025656;28;20068;-82
2022/04/29 10:53:04;;;;;;;1999.90;999.90;;;23.60;50.10;;;;;;5029531;28;20045;-83
2022/04/29 10:55:31;;;;;;;1999.90;999.90;;;23.60;49.80;;;;;;5031037;28;20486;-82
2022/04/29 10:58:02;;;;;;;1999.90;999.90;;;23.60;49.80;;;;;;5014553;28;20037;-85
2022/04/29 11:00:28;;;;;;;1999.90;999.90;;;23.70;49.70;;;;;;5013438;28;20044;-85
2022/04/29 11:02:54;;;;;;;1999.90;999.90;;;23.70;49.70;;;;;;5027636;28;20025;-86
2022/04/29 11:05:35;;;;;;;1999.90;999.90;;;23.80;49.60;;;;;;5028692;28;20045;-79
2022/04/29 11:08:08;;;;;;;1999.90;999.90;;;23.90;49.30;;;;;;5028486;28;20049;-85
2022/04/29 11:10:53;;;;;;;1999.90;999.90;;;23.90;49.30;;;;;;5025373;28;20041;-81
2022/04/29 11:13:23;;;;;;;1999.90;999.90;;;23.90;49.20;;;;;;5025513;28;20052;-85
2022/04/29 11:15:50;;;;;;;1999.90;999.90;;;24.00;49.00;;;;;;5009472;28;20052;-81
2022/04/29 11:18:19;;;;;;;1999.90;999.90;;;24.00;49.10;;;;;;5028493;28;20053;-80
2022/04/29 11:20:47;;;;;;;1999.90;999.90;;;24.10;49.00;;;;;;5010157;28;20037;-83
2022/04/29 11:25:59;;;;;;;1999.90;999.90;;;24.20;48.90;;;;;;5015700;28;20033;-83
2022/04/29 11:28:26;;;;;;;1999.90;999.90;;;24.20;48.70;;;;;;5013793;28;20032;-82
2022/04/29 11:31:00;;;;;;;1999.90;999.90;;;24.30;48.70;;;;;;5026735;28;20021;-81
2022/04/29 11:33:26;;;;;;;1999.90;999.90;;;24.30;48.50;;;;;;5028899;28;20044;-84
2022/04/29 11:36:08;;;;;;;1999.90;999.90;;;24.30;48.20;;;;;;5030398;28;20021;-83
2022/04/29 11:38:42;;;;;;;1999.90;999.90;;;24.40;48.30;;;;;;5027486;28;20034;-82
2022/04/29 11:41:27;;;;;;;1999.90;999.90;;;24.50;48.00;;;;;;5004325;28;20030;-83
2022/04/29 11:43:53;;;;;;;1999.90;999.90;;;24.60;47.90;;;;;;5024968;28;20026;-83
2022/04/29 11:46:20;;;;;;;1999.90;999.90;;;24.60;47.80;;;;;;5028635;28;20045;-87
2022/04/29 11:48:53;;;;;;;1999.90;999.90;;;24.60;47.70;;;;;;5011863;28;20022;-82
2022/04/29 11:51:20;;;;;;;1999.90;999.90;;;24.60;47.70;;;;;;5025500;28;20379;-82
2022/04/29 11:54:12;;;;;;;1999.90;999.90;;;24.60;47.50;;;;;;5026945;28;20040;-82
2022/04/29 11:56:39;;;;;;;1999.90;999.90;;;24.60;47.40;;;;;;5030715;28;20038;-83
2022/04/29 11:59:06;;;;;;;1999.90;999.90;;;24.60;47.40;;;;;;5022023;28;20036;-83
2022/04/29 12:01:33;;;;;;;1999.90;999.90;;;24.70;47.30;;;;;;5026872;28;20048;-83
2022/04/29 12:03:59;;;;;;;1999.90;999.90;;;24.80;47.20;;;;;;4994478;28;20041;-84
2022/04/29 12:06:25;;;;;;;1999.90;999.90;;;24.80;47.00;;;;;;5027922;28;20022;-83
2022/04/29 12:08:51;;;;;;;1999.90;999.90;;;24.80;47.50;;;;;;5014600;28;20064;-84
2022/04/29 12:11:29;;;;;;;1999.90;999.90;;;24.70;46.70;;;;;;5027084;28;20045;-82
2022/04/29 12:13:55;;;;;;;1999.90;999.90;;;24.70;46.70;;;;;;5029452;28;20508;-81
2022/04/29 12:16:21;;;;;;;1999.90;999.90;;;24.60;46.70;;;;;;5025844;28;20137;-81
2022/04/29 12:18:49;;;;;;;1999.90;999.90;;;24.70;46.80;;;;;;5023958;28;20064;-81
2022/04/29 12:21:23;;;;;;;1999.90;999.90;;;24.80;46.70;;;;;;5043323;28;20026;-81
2022/04/29 12:23:49;;;;;;;1999.90;999.90;;;24.80;46.50;;;;;;5023723;28;20037;-81
2022/04/29 12:26:15;;;;;;;1999.90;999.90;;;24.90;46.30;;;;;;5037642;28;20513;-81